Time;durP1;ratioP1;P1;durP2;ratioP2;P2;SDS_P1;SDS_P2;PMS_P1;PMS_P2;Temp;Humidity;BMP_temperature;BMP_pressure;BME280_temperature;BME280_humidity;BME280_pressure;Samples;Min_cycle;Max_cycle;Signal;HPM_P1;HPM_P2
2021/12/31 00:00:19;;;;;;;7.83;4.10;;;;;;;10.11;75.60;99619.19;5093508;28;20237;-87
2021/12/31 00:02:45;;;;;;;13.20;4.67;;;;;;;10.07;76.07;99620.22;5093685;28;20235;-87
2021/12/31 00:05:10;;;;;;;6.43;3.40;;;;;;;10.00;76.80;99617.91;5092845;28;20648;-87
2021/12/31 00:07:36;;;;;;;6.53;3.47;;;;;;;9.90;77.12;99627.94;5093760;28;20574;-88
2021/12/31 00:10:03;;;;;;;8.90;3.40;;;;;;;9.87;77.62;99621.06;5093382;28;20171;-87
2021/12/31 00:12:29;;;;;;;11.10;4.30;;;;;;;9.83;77.58;99629.94;5093679;28;20663;-87
2021/12/31 00:14:55;;;;;;;7.77;3.43;;;;;;;9.80;78.19;99626.63;5093359;28;20173;-87
2021/12/31 00:17:21;;;;;;;4.57;2.10;;;;;;;9.80;78.28;99631.88;5093311;28;20183;-87
2021/12/31 00:19:47;;;;;;;7.13;3.47;;;;;;;9.78;78.00;99628.44;5092657;28;20241;-86
2021/12/31 00:22:42;;;;;;;7.53;3.70;;;;;;;9.73;77.86;99628.63;5093469;28;20286;-87
2021/12/31 00:25:03;;;;;;;7.67;3.47;;;;;;;9.83;77.21;99631.72;5093089;28;20176;-87
2021/12/31 00:27:28;;;;;;;4.73;2.77;;;;;;;9.69;77.55;99634.06;5093226;28;20615;-87
2021/12/31 00:29:53;;;;;;;8.73;3.13;;;;;;;9.79;77.61;99645.84;5093466;28;20236;-87
2021/12/31 00:32:19;;;;;;;4.80;2.67;;;;;;;9.92;77.03;99639.19;5093460;28;20182;-87
2021/12/31 00:34:45;;;;;;;5.57;2.13;;;;;;;9.97;76.65;99650.31;5092806;28;20180;-87
2021/12/31 00:37:11;;;;;;;6.30;2.83;;;;;;;10.05;76.33;99648.25;5093223;28;20165;-87
2021/12/31 00:39:37;;;;;;;5.43;3.23;;;;;;;10.03;76.75;99657.06;5093329;28;20267;-87
2021/12/31 00:42:03;;;;;;;7.20;3.07;;;;;;;10.11;76.15;99655.00;5093308;28;20203;-87
2021/12/31 00:44:28;;;;;;;6.07;2.30;;;;;;;10.20;76.07;99654.63;5093010;28;20168;-86
2021/12/31 00:46:54;;;;;;;7.67;3.37;;;;;;;10.17;76.20;99649.50;5093039;28;20170;-87
2021/12/31 00:49:19;;;;;;;6.40;3.20;;;;;;;10.17;76.09;99647.75;5093256;28;20630;-87
2021/12/31 00:51:45;;;;;;;4.63;2.80;;;;;;;10.26;75.73;99636.88;5092953;28;20635;-86
2021/12/31 00:54:10;;;;;;;8.20;3.33;;;;;;;10.22;76.08;99637.91;5093216;28;20176;-86
2021/12/31 00:56:35;;;;;;;13.83;3.10;;;;;;;10.25;75.74;99624.69;5093486;28;20247;-86
2021/12/31 00:59:01;;;;;;;10.40;4.10;;;;;;;10.25;75.53;99614.22;5092226;28;20180;-85
2021/12/31 01:01:27;;;;;;;11.67;3.47;;;;;;;10.34;75.60;99616.44;5093238;28;20172;-86
2021/12/31 01:03:53;;;;;;;5.70;2.90;;;;;;;10.37;75.63;99618.06;5092466;28;20237;-87
2021/12/31 01:06:18;;;;;;;8.40;2.93;;;;;;;10.40;75.64;99618.75;5091860;28;20172;-87
2021/12/31 01:08:44;;;;;;;9.57;3.20;;;;;;;10.48;75.54;99621.91;5093094;28;20169;-87
2021/12/31 01:11:10;;;;;;;7.83;3.07;;;;;;;10.58;75.21;99618.88;5092112;28;20180;-86
2021/12/31 01:13:49;;;;;;;8.90;3.70;;;;;;;10.60;74.99;99614.41;5093087;28;20227;-86
2021/12/31 01:16:16;;;;;;;8.20;3.30;;;;;;;10.61;74.81;99618.75;5092617;28;20168;-87
2021/12/31 01:21:20;;;;;;;6.77;3.33;;;;;;;10.62;74.86;99617.81;5093068;28;20515;-86
2021/12/31 01:23:47;;;;;;;5.27;3.17;;;;;;;10.49;75.06;99618.38;5092645;28;20192;-86
2021/12/31 01:26:13;;;;;;;10.03;3.20;;;;;;;10.44;75.60;99615.09;5092014;28;20203;-87
2021/12/31 01:28:39;;;;;;;6.30;3.70;;;;;;;10.43;75.76;99625.63;5091731;28;20192;-87
2021/12/31 01:31:04;;;;;;;4.83;2.27;;;;;;;10.49;75.79;99626.25;5092230;28;20615;-86
2021/12/31 01:33:30;;;;;;;6.23;2.87;;;;;;;10.50;75.44;99619.22;5092517;28;20627;-86
2021/12/31 01:35:56;;;;;;;5.77;3.33;;;;;;;10.47;75.55;99614.97;5092869;28;20176;-87
2021/12/31 01:38:21;;;;;;;5.07;2.37;;;;;;;10.54;75.53;99619.91;5091538;28;20680;-87
2021/12/31 01:40:48;;;;;;;8.27;3.00;;;;;;;10.57;75.13;99617.16;5091865;28;20173;-86
2021/12/31 01:43:14;;;;;;;8.67;4.30;;;;;;;10.57;75.09;99614.56;5092425;28;20215;-86
2021/12/31 01:45:45;;;;;;;4.37;2.87;;;;;;;10.55;75.24;99605.91;5093211;28;20176;-86
2021/12/31 01:48:23;;;;;;;9.43;2.53;;;;;;;10.54;75.14;99619.91;5096086;28;20163;-86
2021/12/31 01:50:49;;;;;;;7.43;3.00;;;;;;;10.53;75.30;99618.25;5095090;28;20168;-86
2021/12/31 01:53:16;;;;;;;3.47;1.77;;;;;;;10.54;74.91;99612.06;5095951;28;20244;-86
2021/12/31 01:55:42;;;;;;;6.00;3.10;;;;;;;10.52;75.50;99611.28;5096230;28;20679;-87
2021/12/31 01:58:09;;;;;;;6.73;2.70;;;;;;;10.51;75.40;99592.09;5095886;28;20183;-86
2021/12/31 02:00:37;;;;;;;6.63;4.03;;;;;;;10.51;75.27;99592.09;5095492;28;20172;-87
2021/12/31 02:03:04;;;;;;;6.97;3.90;;;;;;;10.55;75.20;99583.19;5095697;28;20599;-86
2021/12/31 02:05:30;;;;;;;8.57;3.50;;;;;;;10.60;75.12;99588.19;5095711;28;20172;-88
2021/12/31 02:07:55;;;;;;;6.87;3.30;;;;;;;10.62;74.88;99596.84;5094733;28;20276;-87
2021/12/31 02:10:21;;;;;;;7.83;4.33;;;;;;;10.63;74.78;99588.94;5094651;28;20180;-86
2021/12/31 02:12:48;;;;;;;6.60;3.83;;;;;;;10.60;74.51;99585.59;5094629;28;20173;-87
2021/12/31 02:15:16;;;;;;;5.63;2.20;;;;;;;10.54;74.68;99578.00;5095581;28;20168;-86
2021/12/31 02:17:44;;;;;;;4.90;2.30;;;;;;;10.49;74.71;99584.31;5095861;28;20202;-87
2021/12/31 02:20:10;;;;;;;5.63;2.63;;;;;;;10.52;74.63;99590.31;5095577;28;20243;-87
2021/12/31 02:22:42;;;;;;;7.27;2.73;;;;;;;10.51;74.38;99583.41;5094674;28;20192;-86
2021/12/31 02:25:08;;;;;;;7.27;2.17;;;;;;;10.51;74.72;99588.63;5094729;28;20591;-87
2021/12/31 02:27:39;;;;;;;6.40;2.67;;;;;;;10.44;74.10;99588.91;5094627;28;20589;-86
2021/12/31 02:30:07;;;;;;;5.33;3.20;;;;;;;10.35;74.01;99576.19;5095854;28;20168;-86
2021/12/31 02:32:33;;;;;;;6.40;3.00;;;;;;;10.19;73.84;99574.34;5094213;28;20168;-86
2021/12/31 02:34:58;;;;;;;8.27;4.43;;;;;;;10.15;74.27;99583.25;5094100;28;20191;-86
2021/12/31 02:37:24;;;;;;;5.73;3.40;;;;;;;10.10;74.17;99583.41;5094198;28;20168;-86
2021/12/31 02:39:50;;;;;;;7.40;4.00;;;;;;;10.01;73.90;99590.81;5094401;28;20172;-87
2021/12/31 02:42:16;;;;;;;9.57;3.27;;;;;;;9.92;74.00;99584.22;5094862;28;20216;-87
2021/12/31 02:44:42;;;;;;;8.10;4.70;;;;;;;9.89;74.49;99581.72;5093938;28;20601;-86
2021/12/31 02:47:08;;;;;;;8.43;3.70;;;;;;;9.89;73.69;99581.72;5094236;28;20266;-87
2021/12/31 02:49:39;;;;;;;9.20;3.80;;;;;;;9.76;73.82;99589.25;5093861;28;20251;-86
2021/12/31 02:52:06;;;;;;;6.03;3.23;;;;;;;9.77;73.77;99595.34;5095183;28;20187;-86
2021/12/31 02:54:35;;;;;;;8.10;3.57;;;;;;;9.56;74.20;99591.00;5093855;28;20239;-87
2021/12/31 02:57:00;;;;;;;5.40;3.60;;;;;;;9.53;74.63;99598.97;5093874;28;20168;-86
2021/12/31 02:59:26;;;;;;;7.37;3.20;;;;;;;9.39;75.32;99599.50;5094725;28;20250;-86
2021/12/31 03:01:52;;;;;;;10.83;5.83;;;;;;;9.15;76.10;99600.50;5094573;28;20713;-87
2021/12/31 03:04:21;;;;;;;10.63;4.57;;;;;;;9.31;75.94;99595.50;5093644;28;20176;-86
2021/12/31 03:06:49;;;;;;;12.20;4.23;;;;;;;9.37;75.36;99590.03;5093565;28;20238;-86
2021/12/31 03:09:15;;;;;;;9.27;4.70;;;;;;;9.35;74.63;99599.72;5093814;28;20509;-86
2021/12/31 03:11:42;;;;;;;7.63;4.27;;;;;;;8.99;75.35;99605.47;5094447;28;20254;-87
2021/12/31 03:14:09;;;;;;;14.00;5.77;;;;;;;8.91;76.20;99615.34;5093381;28;20184;-86
2021/12/31 03:16:35;;;;;;;9.40;4.97;;;;;;;8.84;75.93;99616.50;5093398;28;20230;-86
2021/12/31 03:19:02;;;;;;;14.90;4.87;;;;;;;8.95;75.27;99619.59;5093913;28;20181;-86
2021/12/31 03:21:29;;;;;;;12.13;4.43;;;;;;;8.87;75.33;99616.41;5093274;28;20170;-86
2021/12/31 03:23:55;;;;;;;10.93;4.83;;;;;;;8.82;74.96;99613.13;5094392;28;20254;-86
2021/12/31 03:26:21;;;;;;;10.90;5.33;;;;;;;8.76;75.39;99615.09;5094167;28;20570;-87
2021/12/31 03:28:47;;;;;;;9.90;5.37;;;;;;;8.75;75.25;99618.63;5094143;28;20173;-86
2021/12/31 03:31:13;;;;;;;10.60;4.50;;;;;;;8.71;74.85;99615.28;5094112;28;20194;-86
2021/12/31 03:33:38;;;;;;;14.27;5.00;;;;;;;8.54;75.37;99622.91;5093870;28;20228;-86
2021/12/31 03:36:04;;;;;;;8.33;4.57;;;;;;;8.54;75.16;99628.94;5093134;28;20174;-86
2021/12/31 03:38:29;;;;;;;7.20;3.97;;;;;;;8.27;76.24;99627.34;5092986;28;20264;-86
2021/12/31 03:40:54;;;;;;;10.13;3.93;;;;;;;8.33;76.33;99640.16;5094203;28;20208;-86
2021/12/31 03:43:20;;;;;;;10.03;4.27;;;;;;;8.21;76.86;99637.97;5093819;28;20224;-86
2021/12/31 03:45:46;;;;;;;9.67;3.30;;;;;;;8.21;76.95;99645.78;5093159;28;20177;-86
2021/12/31 03:48:12;;;;;;;7.90;4.37;;;;;;;8.02;78.08;99653.41;5093777;28;20173;-86
2021/12/31 03:50:38;;;;;;;13.33;5.63;;;;;;;7.95;77.96;99651.91;5092796;28;20523;-87
2021/12/31 03:53:03;;;;;;;9.67;4.50;;;;;;;8.16;77.54;99660.78;5093336;28;20627;-86
2021/12/31 03:55:29;;;;;;;8.13;4.23;;;;;;;8.19;77.20;99665.03;5093554;28;20191;-86
2021/12/31 03:57:54;;;;;;;9.87;3.43;;;;;;;8.01;77.80;99664.78;5092928;28;20660;-86
2021/12/31 04:00:20;;;;;;;11.03;4.20;;;;;;;8.08;78.22;99678.47;5093566;28;20181;-86
2021/12/31 04:02:45;;;;;;;9.23;4.43;;;;;;;8.15;78.60;99666.06;5092802;28;20198;-86
2021/12/31 04:05:11;;;;;;;8.47;4.30;;;;;;;8.21;78.38;99674.53;5092551;28;20204;-86
2021/12/31 04:07:36;;;;;;;9.30;4.60;;;;;;;8.26;78.29;99679.56;5093797;28;20173;-86
2021/12/31 04:10:03;;;;;;;9.13;5.00;;;;;;;8.04;78.90;99682.91;5093756;28;20173;-87
2021/12/31 04:12:28;;;;;;;11.50;4.67;;;;;;;8.13;79.68;99684.38;5092400;28;20188;-87
2021/12/31 04:14:54;;;;;;;10.70;4.10;;;;;;;8.09;79.44;99687.16;5093663;28;20226;-87
2021/12/31 04:17:19;;;;;;;13.33;5.07;;;;;;;8.15;79.92;99681.72;5093347;28;20634;-86
2021/12/31 04:19:49;;;;;;;9.33;5.33;;;;;;;8.13;79.97;99688.75;5093356;28;20177;-86
2021/12/31 04:22:14;;;;;;;14.30;5.43;;;;;;;8.04;81.56;99689.91;5092339;28;20189;-86
2021/12/31 04:27:08;;;;;;;7.40;3.97;;;;;;;8.01;81.90;99696.09;5093236;28;20246;-85
2021/12/31 04:29:34;;;;;;;9.37;5.07;;;;;;;8.01;82.57;99700.47;5093490;28;20180;-86
2021/12/31 04:32:03;;;;;;;13.70;5.07;;;;;;;8.23;82.19;99704.03;5093165;28;20169;-86
2021/12/31 04:34:29;;;;;;;8.20;3.57;;;;;;;8.31;81.79;99703.81;5092369;28;20273;-86
2021/12/31 04:36:55;;;;;;;9.67;4.57;;;;;;;8.41;81.29;99703.44;5093119;28;20255;-86
2021/12/31 04:39:20;;;;;;;6.30;3.97;;;;;;;8.49;80.96;99713.66;5092441;28;20264;-86
2021/12/31 04:41:46;;;;;;;10.93;2.87;;;;;;;8.51;80.36;99706.59;5092577;28;20603;-87
2021/12/31 04:44:11;;;;;;;13.77;3.90;;;;;;;8.49;79.75;99698.81;5092986;28;20180;-86
2021/12/31 04:46:37;;;;;;;8.70;3.87;;;;;;;8.51;79.52;99701.38;5093570;28;20183;-87
2021/12/31 04:49:03;;;;;;;10.13;4.53;;;;;;;8.45;79.27;99707.66;5093010;28;20238;-86
2021/12/31 04:51:29;;;;;;;6.37;3.93;;;;;;;8.32;78.05;99713.38;5092334;28;20255;-87
2021/12/31 04:53:54;;;;;;;10.17;3.30;;;;;;;8.29;77.79;99705.63;5092286;28;20198;-86
2021/12/31 04:56:20;;;;;;;8.53;3.13;;;;;;;8.32;77.34;99718.59;5091921;28;20168;-86
2021/12/31 04:58:45;;;;;;;9.87;4.27;;;;;;;8.29;77.46;99713.47;5091964;28;20173;-86
2021/12/31 05:01:11;;;;;;;11.33;5.03;;;;;;;8.30;77.44;99713.44;5092872;28;20169;-87
2021/12/31 05:03:36;;;;;;;8.77;4.03;;;;;;;8.07;77.90;99715.06;5093124;28;20210;-86
2021/12/31 05:06:02;;;;;;;10.67;5.67;;;;;;;7.90;78.25;99718.22;5091900;28;20180;-86
2021/12/31 05:08:28;;;;;;;12.07;5.57;;;;;;;7.88;78.84;99726.13;5085606;28;20272;-85
2021/12/31 05:10:55;;;;;;;11.53;5.00;;;;;;;8.00;78.35;99719.63;5071586;28;20189;-86
2021/12/31 05:13:22;;;;;;;5.27;3.30;;;;;;;7.89;79.95;99714.75;5072608;28;20170;-85
2021/12/31 05:15:51;;;;;;;7.50;3.00;;;;;;;7.87;80.95;99724.41;5071909;28;20245;-85
2021/12/31 05:18:17;;;;;;;6.97;2.63;;;;;;;7.87;81.02;99729.63;5071566;28;20187;-85
2021/12/31 05:20:44;;;;;;;4.10;1.73;;;;;;;7.86;81.35;99725.28;5089292;28;20212;-85
2021/12/31 05:23:09;;;;;;;4.93;2.43;;;;;;;7.96;81.39;99729.34;5079092;28;20204;-85
2021/12/31 05:25:35;;;;;;;6.60;2.93;;;;;;;7.93;80.89;99728.56;5092708;28;20185;-86
2021/12/31 05:28:02;;;;;;;6.87;2.43;;;;;;;7.93;81.57;99737.25;5075574;28;20556;-86
2021/12/31 05:30:29;;;;;;;5.57;2.90;;;;;;;7.99;81.74;99734.44;5075160;28;20173;-85
2021/12/31 05:33:02;;;;;;;6.13;2.90;;;;;;;8.12;80.96;99734.03;5076125;28;20166;-86
2021/12/31 05:35:29;;;;;;;7.20;3.00;;;;;;;8.16;80.73;99744.34;5076854;28;20632;-85
2021/12/31 05:37:57;;;;;;;4.60;2.40;;;;;;;8.17;80.60;99750.41;5090585;28;20180;-86
2021/12/31 05:40:25;;;;;;;5.40;2.30;;;;;;;8.17;80.00;99759.09;5095320;28;20204;-88
2021/12/31 05:42:51;;;;;;;6.73;3.27;;;;;;;8.13;80.63;99760.09;5095471;28;20201;-84
2021/12/31 05:45:18;;;;;;;6.43;2.73;;;;;;;8.17;80.31;99768.69;5095944;28;20192;-84
2021/12/31 05:47:47;;;;;;;4.37;2.37;;;;;;;8.20;80.10;99776.44;5096380;28;20180;-84
2021/12/31 05:50:32;;;;;;;8.87;2.93;;;;;;;8.13;80.00;99780.13;5096018;28;20186;-84
2021/12/31 05:53:00;;;;;;;4.77;2.07;;;;;;;8.12;79.98;99774.06;5096636;28;20167;-84
2021/12/31 05:55:28;;;;;;;5.53;2.63;;;;;;;8.04;80.43;99766.47;5096056;28;20277;-84
2021/12/31 05:57:57;;;;;;;7.47;2.83;;;;;;;8.03;80.76;99762.16;5089526;28;20274;-87
2021/12/31 06:00:26;;;;;;;9.47;2.57;;;;;;;7.94;81.04;99764.19;5078171;28;20684;-87
2021/12/31 06:02:53;;;;;;;4.87;2.43;;;;;;;7.99;81.30;99759.72;5074842;28;20258;-86
2021/12/31 06:05:22;;;;;;;7.77;3.47;;;;;;;7.89;81.88;99759.13;5074554;28;20615;-86
2021/12/31 06:07:49;;;;;;;5.53;2.40;;;;;;;7.85;81.77;99756.66;5084610;28;20276;-86
2021/12/31 06:10:15;;;;;;;3.77;2.13;;;;;;;8.02;81.53;99768.28;5094703;28;20180;-86
2021/12/31 06:12:43;;;;;;;5.30;2.80;;;;;;;8.19;80.42;99766.88;5095864;28;20171;-86
2021/12/31 06:15:10;;;;;;;3.63;2.03;;;;;;;8.22;80.16;99765.03;5095358;28;20204;-88
2021/12/31 06:17:37;;;;;;;4.50;1.70;;;;;;;8.30;79.42;99755.22;5095801;28;20267;-87
2021/12/31 06:20:07;;;;;;;4.90;2.87;;;;;;;8.40;78.93;99756.59;5095427;28;20176;-87
2021/12/31 06:22:34;;;;;;;3.27;2.37;;;;;;;8.54;78.40;99749.13;5094009;28;20232;-87
2021/12/31 06:25:00;;;;;;;5.50;2.80;;;;;;;8.58;78.54;99748.13;5090380;28;20207;-87
2021/12/31 06:27:28;;;;;;;7.70;3.23;;;;;;;8.74;77.61;99730.16;5095040;28;20184;-87
2021/12/31 06:29:54;;;;;;;8.80;2.83;;;;;;;8.93;77.03;99733.81;5095293;28;20251;-87
2021/12/31 06:32:20;;;;;;;5.87;2.63;;;;;;;9.05;76.76;99735.97;5095031;28;20169;-87
2021/12/31 06:34:45;;;;;;;7.70;3.13;;;;;;;9.22;76.15;99737.97;5094095;28;20656;-87
2021/12/31 06:37:11;;;;;;;8.50;2.80;;;;;;;9.36;75.86;99734.81;5095077;28;20169;-87
2021/12/31 06:39:40;;;;;;;5.60;2.63;;;;;;;9.31;74.84;99736.75;5095137;28;20180;-87
2021/12/31 06:42:07;;;;;;;6.10;3.47;;;;;;;9.20;75.14;99750.25;5094964;28;20232;-87
2021/12/31 06:44:34;;;;;;;6.13;3.23;;;;;;;9.40;74.59;99742.50;5095264;28;20170;-88
2021/12/31 06:47:01;;;;;;;8.33;2.97;;;;;;;9.44;74.51;99743.22;5095187;28;20211;-87
2021/12/31 06:49:29;;;;;;;6.93;3.23;;;;;;;9.30;74.63;99761.22;5093914;28;20198;-88
2021/12/31 06:51:56;;;;;;;7.73;2.63;;;;;;;9.40;74.24;99752.13;5076403;28;20176;-87
2021/12/31 06:54:23;;;;;;;4.73;2.43;;;;;;;9.54;74.64;99739.38;5094792;28;20180;-88
2021/12/31 06:56:50;;;;;;;5.23;2.83;;;;;;;9.77;74.12;99737.53;5093785;28;20267;-87
2021/12/31 06:59:17;;;;;;;5.90;2.20;;;;;;;9.98;73.87;99734.97;5093750;28;20175;-88
2021/12/31 07:01:43;;;;;;;4.40;2.23;;;;;;;10.07;71.97;99745.94;5087264;28;20631;-88
2021/12/31 07:04:10;;;;;;;6.10;3.23;;;;;;;10.22;72.15;99741.88;5092857;28;20177;-88
2021/12/31 07:06:37;;;;;;;5.47;2.60;;;;;;;10.22;71.63;99749.75;5094043;28;20182;-87
2021/12/31 07:09:02;;;;;;;6.90;2.57;;;;;;;10.14;72.42;99757.88;5094311;28;20274;-88
2021/12/31 07:11:29;;;;;;;4.33;2.70;;;;;;;10.04;72.02;99763.53;5095006;28;20233;-88
2021/12/31 07:13:54;;;;;;;7.53;3.43;;;;;;;9.91;72.89;99768.41;5093324;28;20638;-88
2021/12/31 07:16:20;;;;;;;5.47;2.33;;;;;;;10.02;72.24;99773.22;5094334;28;20242;-88
2021/12/31 07:18:46;;;;;;;3.83;2.00;;;;;;;10.04;71.98;99774.84;5093181;28;20254;-87
2021/12/31 07:21:13;;;;;;;6.50;2.57;;;;;;;10.14;72.50;99772.78;5094392;28;20174;-88
2021/12/31 07:23:40;;;;;;;5.50;2.83;;;;;;;10.10;72.08;99782.47;5094201;28;20215;-88
2021/12/31 07:26:07;;;;;;;4.77;2.13;;;;;;;10.24;71.89;99776.72;5094185;28;20180;-88
2021/12/31 07:28:32;;;;;;;6.40;3.00;;;;;;;10.25;72.05;99781.88;5093114;28;20169;-88
2021/12/31 07:31:00;;;;;;;4.87;2.70;;;;;;;10.27;71.49;99789.69;5094226;28;20173;-88
2021/12/31 07:33:26;;;;;;;8.23;3.83;;;;;;;10.12;71.17;99795.50;5094066;28;20164;-88
2021/12/31 07:35:52;;;;;;;6.27;2.93;;;;;;;10.19;71.10;99792.63;5093833;28;20285;-88
2021/12/31 07:38:24;;;;;;;5.67;2.37;;;;;;;10.13;71.50;99792.88;5092389;28;20255;-89
2021/12/31 07:40:51;;;;;;;7.53;2.87;;;;;;;10.15;72.16;99798.91;5093832;28;20153;-88
2021/12/31 07:43:20;;;;;;;5.47;3.13;;;;;;;10.27;71.49;99802.81;5092920;28;20683;-88
2021/12/31 07:45:45;;;;;;;5.70;3.23;;;;;;;10.35;71.92;99793.69;5092782;28;20180;-89
2021/12/31 07:48:12;;;;;;;5.67;2.77;;;;;;;10.53;71.26;99804.34;5093690;28;20538;-88
2021/12/31 07:50:39;;;;;;;5.37;3.00;;;;;;;10.60;71.33;99793.53;5091116;28;20181;-89
2021/12/31 07:53:07;;;;;;;8.33;3.50;;;;;;;10.71;71.56;99807.03;5081135;28;20177;-89
2021/12/31 07:55:35;;;;;;;6.77;3.73;;;;;;;10.79;70.25;99806.72;5078112;28;20173;-89
2021/12/31 07:58:03;;;;;;;8.00;2.43;;;;;;;10.82;69.60;99810.03;5092734;28;20313;-88
2021/12/31 08:00:29;;;;;;;5.57;3.37;;;;;;;10.68;69.96;99822.03;5093522;28;20177;-89
2021/12/31 08:02:57;;;;;;;4.47;2.73;;;;;;;10.78;70.19;99820.72;5093249;28;20192;-89
2021/12/31 08:05:25;;;;;;;5.17;2.80;;;;;;;10.94;70.46;99821.78;5093353;28;20184;-89
2021/12/31 08:07:52;;;;;;;6.37;2.40;;;;;;;10.92;69.73;99823.63;5092917;28;20180;-90
2021/12/31 08:10:20;;;;;;;7.20;3.07;;;;;;;10.74;69.36;99827.03;5092791;28;20625;-89
2021/12/31 08:12:47;;;;;;;6.07;3.00;;;;;;;10.55;71.32;99845.31;5093271;28;20183;-89
2021/12/31 08:15:15;;;;;;;8.30;3.50;;;;;;;10.44;71.30;99837.88;5091844;28;20188;-88
2021/12/31 08:17:41;;;;;;;7.67;3.27;;;;;;;10.49;71.56;99825.44;5092207;28;20192;-89
2021/12/31 08:20:08;;;;;;;7.53;2.53;;;;;;;10.42;71.40;99826.63;5092232;28;20204;-89
2021/12/31 08:22:36;;;;;;;5.73;2.43;;;;;;;10.41;71.17;99830.13;5093416;28;20222;-89
2021/12/31 08:25:04;;;;;;;10.40;4.33;;;;;;;10.63;71.20;99824.00;5093363;28;20187;-89
2021/12/31 08:27:31;;;;;;;6.13;2.87;;;;;;;10.73;72.12;99830.56;5089909;28;20181;-89
2021/12/31 08:29:58;;;;;;;6.37;3.17;;;;;;;10.84;71.15;99833.59;5088380;28;20634;-91
2021/12/31 08:32:25;;;;;;;5.53;3.20;;;;;;;10.68;70.31;99832.53;5093076;28;20161;-89
2021/12/31 08:34:50;;;;;;;8.80;3.63;;;;;;;10.67;69.62;99830.81;5092808;28;20266;-88
2021/12/31 08:37:17;;;;;;;7.77;3.33;;;;;;;10.82;70.37;99825.78;5090349;28;20223;-90
2021/12/31 08:39:44;;;;;;;6.73;3.40;;;;;;;10.59;69.89;99828.50;5072108;28;20183;-90
2021/12/31 08:42:13;;;;;;;5.43;3.33;;;;;;;10.64;70.41;99826.56;5072743;28;20204;-89
2021/12/31 08:45:05;;;;;;;7.77;3.67;;;;;;;10.92;70.67;99821.88;5073024;28;20188;-91
2021/12/31 08:47:30;;;;;;;8.60;3.70;;;;;;;11.05;69.54;99823.03;5072954;28;20617;-90
2021/12/31 08:49:57;;;;;;;10.47;4.33;;;;;;;11.12;70.79;99826.22;5077410;28;20181;-89
2021/12/31 08:52:30;;;;;;;9.87;4.23;;;;;;;11.21;69.05;99815.34;5090234;28;20299;-90
2021/12/31 08:55:02;;;;;;;5.13;2.80;;;;;;;11.24;68.63;99814.34;5094407;28;20159;-90
2021/12/31 08:57:29;;;;;;;7.67;3.17;;;;;;;11.20;68.70;99808.38;5096394;28;20651;-91
2021/12/31 08:59:55;;;;;;;5.30;2.90;;;;;;;11.51;69.33;99800.84;5097571;28;20263;-90
2021/12/31 09:02:21;;;;;;;4.40;2.40;;;;;;;11.78;69.46;99803.13;5095625;28;20231;-90
2021/12/31 09:04:48;;;;;;;7.73;3.43;;;;;;;11.81;67.57;99797.75;5096278;28;20207;-88
2021/12/31 09:07:14;;;;;;;6.37;3.00;;;;;;;11.70;66.76;99783.34;5096366;28;20262;-91
2021/12/31 09:09:41;;;;;;;7.73;3.10;;;;;;;11.84;67.50;99782.69;5095866;28;20244;-90
2021/12/31 09:12:08;;;;;;;6.43;2.87;;;;;;;11.89;65.96;99782.47;5095737;28;20220;-90
2021/12/31 09:14:35;;;;;;;6.83;3.27;;;;;;;11.69;66.03;99779.00;5097070;28;20168;-89
2021/12/31 09:17:01;;;;;;;6.27;2.63;;;;;;;11.54;64.91;99774.44;5096557;28;20183;-88
2021/12/31 09:19:28;;;;;;;6.13;2.90;;;;;;;11.23;65.71;99774.13;5096556;28;20165;-90
2021/12/31 09:21:55;;;;;;;5.60;2.83;;;;;;;11.22;66.04;99767.16;5096417;28;20169;-89
2021/12/31 09:24:23;;;;;;;7.47;3.17;;;;;;;11.32;68.30;99767.63;5095665;28;20638;-90
2021/12/31 09:26:59;;;;;;;6.23;3.63;;;;;;;11.63;67.51;99760.88;5096065;28;20184;-91
2021/12/31 09:33:24;;;;;;;6.93;3.27;;;;;;;11.84;65.67;99758.19;4997760;28;20639;-91
2021/12/31 09:36:00;;;;;;;10.40;2.87;;;;;;;11.82;65.68;99742.50;5091760;28;20605;-90
2021/12/31 09:38:29;;;;;;;9.10;2.83;;;;;;;11.83;66.57;99735.47;5075983;28;20187;-90
2021/12/31 09:40:59;;;;;;;11.03;3.37;;;;;;;11.94;66.57;99725.31;5087376;28;20180;-88
2021/12/31 09:44:04;;;;;;;6.57;2.83;;;;;;;12.04;65.30;99726.56;5074827;28;20203;-92
2021/12/31 09:47:04;;;;;;;5.57;3.00;;;;;;;12.32;63.80;99708.47;5084072;28;20646;-90
2021/12/31 09:49:41;;;;;;;9.57;2.90;;;;;;;11.97;65.30;99709.41;5089127;28;20211;-90
2021/12/31 09:52:13;;;;;;;6.37;2.73;;;;;;;12.18;64.09;99705.72;5094225;28;20658;-89
2021/12/31 09:54:48;;;;;;;7.27;3.43;;;;;;;12.38;63.47;99696.81;5090563;28;20189;-91
2021/12/31 09:57:19;;;;;;;5.53;2.90;;;;;;;12.57;62.25;99685.28;5089841;28;20271;-90
2021/12/31 09:59:47;;;;;;;7.23;4.00;;;;;;;12.84;63.96;99681.19;5076556;28;20186;-90
2021/12/31 10:02:35;;;;;;;6.00;2.70;;;;;;;12.93;63.13;99680.72;5084551;28;20218;-90
2021/12/31 10:18:45;;;;;;;13.17;4.17;;;;;;;13.08;62.28;99651.88;4823829;29;20271;-90
2021/12/31 10:22:13;;;;;;;;;;;;;;;;;;;;;
2021/12/31 10:24:41;;;;;;;6.47;2.87;;;;;;;13.24;59.87;99635.16;4894564;29;20205;-89
2021/12/31 10:31:40;;;;;;;;;;;;;;;;;;;;;
2021/12/31 10:38:43;;;;;;;;;;;;;;;;;;;;;
2021/12/31 10:41:29;;;;;;;6.17;3.40;;;;;;;13.78;59.98;99623.31;4918497;29;20193;-91
2021/12/31 10:43:59;;;;;;;10.03;3.07;;;;;;;13.92;59.66;99618.06;4952142;28;20243;-91
2021/12/31 10:46:26;;;;;;;5.73;2.20;;;;;;;14.03;58.98;99618.31;4969510;28;20192;-89
2021/12/31 10:49:00;;;;;;;7.33;2.50;;;;;;;14.11;59.33;99610.78;5069662;28;20628;-89
2021/12/31 10:51:47;;;;;;;7.93;2.87;;;;;;;14.03;58.67;99615.66;5087290;28;20199;-90
2021/12/31 10:54:32;;;;;;;5.23;2.70;;;;;;;13.73;57.83;99617.44;5074862;28;20156;-88
2021/12/31 10:57:00;;;;;;;5.77;2.97;;;;;;;13.65;58.05;99603.88;5093987;28;20283;-88
2021/12/31 10:59:32;;;;;;;4.27;1.80;;;;;;;13.92;58.55;99597.00;5074499;28;20200;-88
2021/12/31 11:02:00;;;;;;;6.97;3.00;;;;;;;13.93;58.93;99600.47;5074415;28;20248;-89
2021/12/31 11:04:28;;;;;;;4.33;2.60;;;;;;;13.94;59.34;99595.09;5073333;28;20232;-89
2021/12/31 11:06:59;;;;;;;4.90;2.47;;;;;;;13.82;58.07;99602.88;5074046;28;20190;-88
2021/12/31 11:09:29;;;;;;;6.83;3.00;;;;;;;13.93;58.60;99603.97;5074394;28;20179;-90
2021/12/31 11:11:57;;;;;;;6.10;2.97;;;;;;;13.84;59.44;99587.81;5090999;28;20180;-87
2021/12/31 11:14:24;;;;;;;9.67;2.90;;;;;;;13.89;59.04;99591.91;5094400;28;20174;-88
2021/12/31 11:16:50;;;;;;;6.90;2.90;;;;;;;13.85;59.91;99590.41;5094267;28;20171;-89
2021/12/31 11:19:17;;;;;;;6.37;3.00;;;;;;;13.93;60.50;99580.25;5094297;28;20345;-89
2021/12/31 11:21:49;;;;;;;8.83;4.27;;;;;;;14.22;59.86;99589.06;5094373;28;20257;-89
2021/12/31 11:24:34;;;;;;;7.83;3.00;;;;;;;14.09;58.09;99586.31;5094190;28;20180;-87
2021/12/31 11:27:42;;;;;;;5.50;2.43;;;;;;;14.07;60.31;99580.25;5094277;28;20229;-88
2021/12/31 11:30:24;;;;;;;5.27;3.30;;;;;;;14.15;60.73;99575.38;5094156;28;20180;-90
2021/12/31 11:33:10;;;;;;;6.47;2.70;;;;;;;14.15;58.85;99578.00;5093054;28;20226;-89
2021/12/31 11:35:45;;;;;;;6.90;2.57;;;;;;;14.00;59.90;99571.03;5084717;28;20270;-88
2021/12/31 11:38:23;;;;;;;4.53;2.83;;;;;;;14.15;60.46;99569.25;5090186;28;20203;-89
2021/12/31 11:41:11;;;;;;;6.17;2.87;;;;;;;14.18;58.60;99573.53;5092794;28;20228;-89
2021/12/31 11:43:41;;;;;;;5.63;3.40;;;;;;;14.18;59.63;99576.97;5092319;28;20558;-89
2021/12/31 11:46:12;;;;;;;7.97;3.10;;;;;;;14.22;60.24;99582.94;5092708;28;20190;-87
2021/12/31 11:48:52;;;;;;;9.40;3.17;;;;;;;14.22;58.11;99589.06;5093736;28;20675;-87
2021/12/31 11:51:39;;;;;;;6.53;2.83;;;;;;;14.21;57.89;99589.13;5089495;28;20693;-88
2021/12/31 11:54:18;;;;;;;7.30;3.50;;;;;;;14.15;57.79;99592.97;5089802;28;20187;-87
2021/12/31 11:56:59;;;;;;;8.70;3.47;;;;;;;14.29;58.81;99590.38;5079559;28;20190;-88
2021/12/31 11:59:36;;;;;;;9.43;3.90;;;;;;;14.22;58.19;99591.69;5073243;28;20222;-88
2021/12/31 12:02:17;;;;;;;7.10;2.87;;;;;;;14.22;58.09;99580.28;5055674;28;20206;-89
2021/12/31 12:05:08;;;;;;;7.23;3.27;;;;;;;14.28;58.16;99577.28;5073125;28;20159;-88
2021/12/31 12:07:52;;;;;;;6.63;3.73;;;;;;;14.60;57.66;99558.56;5081155;28;20176;-89
2021/12/31 12:10:24;;;;;;;6.93;2.97;;;;;;;14.78;58.23;99560.06;5092998;28;20168;-89
2021/12/31 12:12:57;;;;;;;7.40;3.60;;;;;;;14.89;56.64;99569.94;5091366;28;20180;-89
2021/12/31 12:15:31;;;;;;;11.57;4.30;;;;;;;15.02;56.77;99562.09;5093383;28;20168;-90
2021/12/31 12:18:00;;;;;;;8.07;4.03;;;;;;;14.73;56.53;99558.66;5092809;28;20173;-90